sensor_id;sensor_type;location;lat;lon;timestamp;temperature;humidity
5924;DHT22;2987;50.884;14.818;2022-11-15T00:02:00;6.90;99.90
5924;DHT22;2987;50.884;14.818;2022-11-15T00:04:45;6.70;99.90
5924;DHT22;2987;50.884;14.818;2022-11-15T00:07:30;6.70;99.90
5924;DHT22;2987;50.884;14.818;2022-11-15T00:10:15;6.70;99.90
5924;DHT22;2987;50.884;14.818;2022-11-15T00:12:59;6.70;99.90
5924;DHT22;2987;50.884;14.818;2022-11-15T00:15:44;6.70;99.90
5924;DHT22;2987;50.884;14.818;2022-11-15T00:18:29;6.80;99.90
5924;DHT22;2987;50.884;14.818;2022-11-15T00:21:15;6.80;99.90
5924;DHT22;2987;50.884;14.818;2022-11-15T00:24:00;6.80;99.90
5924;DHT22;2987;50.884;14.818;2022-11-15T00:26:45;6.60;99.90
5924;DHT22;2987;50.884;14.818;2022-11-15T00:29:29;6.40;99.90
5924;DHT22;2987;50.884;14.818;2022-11-15T00:32:14;6.40;99.90
5924;DHT22;2987;50.884;14.818;2022-11-15T00:34:58;6.50;99.90
5924;DHT22;2987;50.884;14.818;2022-11-15T00:37:43;6.40;99.90
5924;DHT22;2987;50.884;14.818;2022-11-15T00:40:28;6.40;99.90
5924;DHT22;2987;50.884;14.818;2022-11-15T00:43:13;6.40;99.90
5924;DHT22;2987;50.884;14.818;2022-11-15T00:45:58;6.60;99.90
5924;DHT22;2987;50.884;14.818;2022-11-15T00:48:43;6.10;99.90
5924;DHT22;2987;50.884;14.818;2022-11-15T00:51:27;6.20;99.90
5924;DHT22;2987;50.884;14.818;2022-11-15T00:54:12;6.30;99.90
5924;DHT22;2987;50.884;14.818;2022-11-15T00:56:56;6.20;99.90
5924;DHT22;2987;50.884;14.818;2022-11-15T00:59:42;6.30;99.90
5924;DHT22;2987;50.884;14.818;2022-11-15T01:02:27;6.50;99.90
5924;DHT22;2987;50.884;14.818;2022-11-15T01:05:12;6.40;99.90
5924;DHT22;2987;50.884;14.818;2022-11-15T01:07:57;6.40;99.90
5924;DHT22;2987;50.884;14.818;2022-11-15T01:10:42;6.70;99.90
5924;DHT22;2987;50.884;14.818;2022-11-15T01:13:30;6.70;99.90
5924;DHT22;2987;50.884;14.818;2022-11-15T01:16:17;6.80;99.90
5924;DHT22;2987;50.884;14.818;2022-11-15T01:19:02;6.70;99.90
5924;DHT22;2987;50.884;14.818;2022-11-15T01:21:50;6.90;99.90
5924;DHT22;2987;50.884;14.818;2022-11-15T01:24:38;7.00;99.90
5924;DHT22;2987;50.884;14.818;2022-11-15T01:27:23;7.10;99.90
5924;DHT22;2987;50.884;14.818;2022-11-15T01:30:08;7.00;99.90
5924;DHT22;2987;50.884;14.818;2022-11-15T01:32:53;7.10;99.90
5924;DHT22;2987;50.884;14.818;2022-11-15T01:35:39;7.00;99.90
5924;DHT22;2987;50.884;14.818;2022-11-15T01:38:24;7.10;99.90
5924;DHT22;2987;50.884;14.818;2022-11-15T01:41:23;7.00;99.90
5924;DHT22;2987;50.884;14.818;2022-11-15T01:44:44;7.00;99.90
5924;DHT22;2987;50.884;14.818;2022-11-15T01:47:36;7.00;99.90
5924;DHT22;2987;50.884;14.818;2022-11-15T01:50:26;7.10;99.90
5924;DHT22;2987;50.884;14.818;2022-11-15T01:55:58;7.20;99.90
5924;DHT22;2987;50.884;14.818;2022-11-15T01:58:44;7.20;99.90
5924;DHT22;2987;50.884;14.818;2022-11-15T02:01:32;7.00;99.90
5924;DHT22;2987;50.884;14.818;2022-11-15T02:04:40;7.00;99.90
5924;DHT22;2987;50.884;14.818;2022-11-15T02:07:25;7.40;99.90
5924;DHT22;2987;50.884;14.818;2022-11-15T02:10:16;7.30;99.90
5924;DHT22;2987;50.884;14.818;2022-11-15T02:13:02;7.30;99.90
5924;DHT22;2987;50.884;14.818;2022-11-15T02:18:34;7.70;99.90
5924;DHT22;2987;50.884;14.818;2022-11-15T02:21:33;7.50;99.90
5924;DHT22;2987;50.884;14.818;2022-11-15T02:42:53;7.30;99.90
5924;DHT22;2987;50.884;14.818;2022-11-15T02:46:20;7.10;99.90
5924;DHT22;2987;50.884;14.818;2022-11-15T02:49:07;7.00;99.90
5924;DHT22;2987;50.884;14.818;2022-11-15T02:51:55;7.00;99.90
5924;DHT22;2987;50.884;14.818;2022-11-15T02:54:40;7.00;99.90
5924;DHT22;2987;50.884;14.818;2022-11-15T03:00:45;6.70;99.90
5924;DHT22;2987;50.884;14.818;2022-11-15T03:15:29;6.70;99.90
5924;DHT22;2987;50.884;14.818;2022-11-15T03:18:21;6.80;99.90
5924;DHT22;2987;50.884;14.818;2022-11-15T03:21:08;6.60;99.90
5924;DHT22;2987;50.884;14.818;2022-11-15T03:23:55;6.60;99.90
5924;DHT22;2987;50.884;14.818;2022-11-15T03:26:44;6.70;99.90
5924;DHT22;2987;50.884;14.818;2022-11-15T03:29:34;6.80;99.90
5924;DHT22;2987;50.884;14.818;2022-11-15T03:32:23;6.60;99.90
5924;DHT22;2987;50.884;14.818;2022-11-15T03:35:12;6.40;99.90
5924;DHT22;2987;50.884;14.818;2022-11-15T03:38:17;6.40;99.90
5924;DHT22;2987;50.884;14.818;2022-11-15T03:41:07;6.40;99.90
5924;DHT22;2987;50.884;14.818;2022-11-15T03:44:06;6.60;99.90
5924;DHT22;2987;50.884;14.818;2022-11-15T03:47:17;6.50;99.90
5924;DHT22;2987;50.884;14.818;2022-11-15T03:50:12;6.40;99.90
5924;DHT22;2987;50.884;14.818;2022-11-15T03:52:57;6.70;99.90
5924;DHT22;2987;50.884;14.818;2022-11-15T03:55:43;6.70;99.90
5924;DHT22;2987;50.884;14.818;2022-11-15T03:58:28;6.70;99.90
5924;DHT22;2987;50.884;14.818;2022-11-15T04:01:12;7.00;99.90
5924;DHT22;2987;50.884;14.818;2022-11-15T04:03:57;7.20;99.90
5924;DHT22;2987;50.884;14.818;2022-11-15T04:06:42;7.10;99.90
5924;DHT22;2987;50.884;14.818;2022-11-15T04:09:26;7.10;99.90
5924;DHT22;2987;50.884;14.818;2022-11-15T04:12:11;7.00;99.90
5924;DHT22;2987;50.884;14.818;2022-11-15T04:14:59;7.00;99.90
5924;DHT22;2987;50.884;14.818;2022-11-15T04:18:00;7.20;99.90
5924;DHT22;2987;50.884;14.818;2022-11-15T04:20:44;7.20;99.90
5924;DHT22;2987;50.884;14.818;2022-11-15T04:23:49;7.10;99.90
5924;DHT22;2987;50.884;14.818;2022-11-15T04:26:53;7.00;99.90
5924;DHT22;2987;50.884;14.818;2022-11-15T04:29:37;7.10;99.90
5924;DHT22;2987;50.884;14.818;2022-11-15T04:32:22;7.30;99.90
5924;DHT22;2987;50.884;14.818;2022-11-15T04:35:07;7.10;99.90
5924;DHT22;2987;50.884;14.818;2022-11-15T04:37:52;7.00;99.90
5924;DHT22;2987;50.884;14.818;2022-11-15T04:40:37;7.20;99.90
5924;DHT22;2987;50.884;14.818;2022-11-15T04:43:22;7.00;99.90
5924;DHT22;2987;50.884;14.818;2022-11-15T04:46:07;7.10;99.90
5924;DHT22;2987;50.884;14.818;2022-11-15T04:48:53;7.00;99.90
5924;DHT22;2987;50.884;14.818;2022-11-15T04:51:38;7.00;99.90
5924;DHT22;2987;50.884;14.818;2022-11-15T04:54:23;7.20;99.90
5924;DHT22;2987;50.884;14.818;2022-11-15T04:57:08;7.30;99.90
5924;DHT22;2987;50.884;14.818;2022-11-15T04:59:53;7.30;99.90
5924;DHT22;2987;50.884;14.818;2022-11-15T05:02:37;7.30;99.90
5924;DHT22;2987;50.884;14.818;2022-11-15T05:05:42;7.30;99.90
5924;DHT22;2987;50.884;14.818;2022-11-15T05:08:27;7.10;99.90
5924;DHT22;2987;50.884;14.818;2022-11-15T05:11:12;7.10;99.90
5924;DHT22;2987;50.884;14.818;2022-11-15T05:13:57;7.10;99.90
5924;DHT22;2987;50.884;14.818;2022-11-15T05:16:42;7.00;99.90
5924;DHT22;2987;50.884;14.818;2022-11-15T05:19:27;7.00;99.90
5924;DHT22;2987;50.884;14.818;2022-11-15T05:22:12;7.20;99.90
5924;DHT22;2987;50.884;14.818;2022-11-15T05:24:56;7.10;99.90
5924;DHT22;2987;50.884;14.818;2022-11-15T05:27:41;7.30;99.90
5924;DHT22;2987;50.884;14.818;2022-11-15T05:30:27;7.10;99.90
5924;DHT22;2987;50.884;14.818;2022-11-15T05:33:12;6.90;99.90
5924;DHT22;2987;50.884;14.818;2022-11-15T05:36:05;7.00;99.90
5924;DHT22;2987;50.884;14.818;2022-11-15T05:38:52;6.70;99.90
5924;DHT22;2987;50.884;14.818;2022-11-15T05:42:11;6.70;99.90
5924;DHT22;2987;50.884;14.818;2022-11-15T05:44:57;6.70;99.90
5924;DHT22;2987;50.884;14.818;2022-11-15T05:47:43;6.80;99.90
5924;DHT22;2987;50.884;14.818;2022-11-15T05:50:28;6.60;99.90
5924;DHT22;2987;50.884;14.818;2022-11-15T05:53:16;6.60;99.90
5924;DHT22;2987;50.884;14.818;2022-11-15T05:56:04;7.10;99.90
5924;DHT22;2987;50.884;14.818;2022-11-15T05:58:52;6.80;99.90
5924;DHT22;2987;50.884;14.818;2022-11-15T06:01:38;7.00;99.90
5924;DHT22;2987;50.884;14.818;2022-11-15T06:04:23;7.00;99.90
5924;DHT22;2987;50.884;14.818;2022-11-15T06:07:08;6.90;99.90
5924;DHT22;2987;50.884;14.818;2022-11-15T06:09:53;7.10;99.90
5924;DHT22;2987;50.884;14.818;2022-11-15T06:12:38;7.00;99.90
5924;DHT22;2987;50.884;14.818;2022-11-15T06:15:22;7.10;99.90
5924;DHT22;2987;50.884;14.818;2022-11-15T06:18:07;7.10;99.90
5924;DHT22;2987;50.884;14.818;2022-11-15T06:20:52;7.00;99.90
5924;DHT22;2987;50.884;14.818;2022-11-15T06:23:36;7.00;99.90
5924;DHT22;2987;50.884;14.818;2022-11-15T06:26:21;7.20;99.90
5924;DHT22;2987;50.884;14.818;2022-11-15T06:29:06;7.20;99.90
5924;DHT22;2987;50.884;14.818;2022-11-15T06:31:50;7.00;99.90
5924;DHT22;2987;50.884;14.818;2022-11-15T06:34:36;6.90;99.90
5924;DHT22;2987;50.884;14.818;2022-11-15T06:37:21;7.20;99.90
5924;DHT22;2987;50.884;14.818;2022-11-15T06:40:06;7.00;99.90
5924;DHT22;2987;50.884;14.818;2022-11-15T06:42:58;7.20;99.90
5924;DHT22;2987;50.884;14.818;2022-11-15T06:45:43;6.90;99.90
5924;DHT22;2987;50.884;14.818;2022-11-15T06:48:28;7.00;99.90
5924;DHT22;2987;50.884;14.818;2022-11-15T06:51:17;6.90;99.90
5924;DHT22;2987;50.884;14.818;2022-11-15T06:54:02;7.00;99.90
5924;DHT22;2987;50.884;14.818;2022-11-15T06:56:46;7.30;99.90
5924;DHT22;2987;50.884;14.818;2022-11-15T06:59:31;7.00;99.90
5924;DHT22;2987;50.884;14.818;2022-11-15T07:02:16;7.10;99.90
5924;DHT22;2987;50.884;14.818;2022-11-15T07:05:01;7.00;99.90
5924;DHT22;2987;50.884;14.818;2022-11-15T07:07:52;7.10;99.90
5924;DHT22;2987;50.884;14.818;2022-11-15T07:10:37;7.00;99.90
5924;DHT22;2987;50.884;14.818;2022-11-15T07:13:25;7.00;99.90
5924;DHT22;2987;50.884;14.818;2022-11-15T07:16:10;7.20;99.90
5924;DHT22;2987;50.884;14.818;2022-11-15T07:18:55;7.00;99.90
5924;DHT22;2987;50.884;14.818;2022-11-15T07:21:40;7.10;99.90
5924;DHT22;2987;50.884;14.818;2022-11-15T07:24:25;7.00;99.90
5924;DHT22;2987;50.884;14.818;2022-11-15T07:27:09;7.20;99.90
5924;DHT22;2987;50.884;14.818;2022-11-15T07:29:54;7.20;99.90
5924;DHT22;2987;50.884;14.818;2022-11-15T07:32:39;7.40;99.90
5924;DHT22;2987;50.884;14.818;2022-11-15T07:35:26;7.30;99.90
5924;DHT22;2987;50.884;14.818;2022-11-15T07:38:11;7.30;99.90
5924;DHT22;2987;50.884;14.818;2022-11-15T07:40:58;7.30;99.90
5924;DHT22;2987;50.884;14.818;2022-11-15T07:43:43;7.50;99.90
5924;DHT22;2987;50.884;14.818;2022-11-15T07:46:28;7.40;99.90
5924;DHT22;2987;50.884;14.818;2022-11-15T07:49:13;7.30;99.90
5924;DHT22;2987;50.884;14.818;2022-11-15T07:51:58;7.60;99.90
5924;DHT22;2987;50.884;14.818;2022-11-15T07:54:43;7.60;99.90
5924;DHT22;2987;50.884;14.818;2022-11-15T07:57:28;7.50;99.90
5924;DHT22;2987;50.884;14.818;2022-11-15T08:00:14;7.50;99.90
5924;DHT22;2987;50.884;14.818;2022-11-15T08:03:08;7.60;99.90
5924;DHT22;2987;50.884;14.818;2022-11-15T08:05:54;7.80;99.90
5924;DHT22;2987;50.884;14.818;2022-11-15T08:08:38;7.60;99.90
5924;DHT22;2987;50.884;14.818;2022-11-15T08:11:23;8.10;99.90
5924;DHT22;2987;50.884;14.818;2022-11-15T08:14:08;7.70;99.90
5924;DHT22;2987;50.884;14.818;2022-11-15T08:16:54;7.60;99.90
5924;DHT22;2987;50.884;14.818;2022-11-15T08:19:39;8.10;99.90
5924;DHT22;2987;50.884;14.818;2022-11-15T08:22:24;7.90;99.90
5924;DHT22;2987;50.884;14.818;2022-11-15T08:25:08;8.20;99.90
5924;DHT22;2987;50.884;14.818;2022-11-15T08:27:55;7.70;99.90
5924;DHT22;2987;50.884;14.818;2022-11-15T08:30:42;7.70;99.90
5924;DHT22;2987;50.884;14.818;2022-11-15T08:33:28;7.60;99.90
5924;DHT22;2987;50.884;14.818;2022-11-15T08:36:16;7.80;99.90
5924;DHT22;2987;50.884;14.818;2022-11-15T08:39:01;7.90;99.90
5924;DHT22;2987;50.884;14.818;2022-11-15T08:41:45;8.00;99.90
5924;DHT22;2987;50.884;14.818;2022-11-15T08:44:30;7.80;99.90
5924;DHT22;2987;50.884;14.818;2022-11-15T08:47:15;7.90;99.90
5924;DHT22;2987;50.884;14.818;2022-11-15T08:50:00;7.90;99.90
5924;DHT22;2987;50.884;14.818;2022-11-15T08:52:44;7.90;99.90
5924;DHT22;2987;50.884;14.818;2022-11-15T08:55:38;7.90;99.90
5924;DHT22;2987;50.884;14.818;2022-11-15T08:58:24;8.00;99.90
5924;DHT22;2987;50.884;14.818;2022-11-15T09:01:16;8.20;99.90
5924;DHT22;2987;50.884;14.818;2022-11-15T09:04:02;8.10;99.90
5924;DHT22;2987;50.884;14.818;2022-11-15T09:06:48;8.30;99.90
5924;DHT22;2987;50.884;14.818;2022-11-15T09:09:33;8.30;99.90
5924;DHT22;2987;50.884;14.818;2022-11-15T09:12:18;7.90;99.90
5924;DHT22;2987;50.884;14.818;2022-11-15T09:15:03;8.00;99.90
5924;DHT22;2987;50.884;14.818;2022-11-15T09:17:48;8.00;99.90
5924;DHT22;2987;50.884;14.818;2022-11-15T09:20:33;8.60;99.90
5924;DHT22;2987;50.884;14.818;2022-11-15T09:23:18;8.50;99.90
5924;DHT22;2987;50.884;14.818;2022-11-15T09:26:04;8.70;99.90
5924;DHT22;2987;50.884;14.818;2022-11-15T09:28:49;8.60;99.90
5924;DHT22;2987;50.884;14.818;2022-11-15T09:31:34;8.40;99.90
5924;DHT22;2987;50.884;14.818;2022-11-15T09:34:19;8.90;99.90
5924;DHT22;2987;50.884;14.818;2022-11-15T09:37:04;9.00;99.90
5924;DHT22;2987;50.884;14.818;2022-11-15T09:39:49;9.00;99.90
5924;DHT22;2987;50.884;14.818;2022-11-15T09:42:49;8.80;99.90
5924;DHT22;2987;50.884;14.818;2022-11-15T09:46:01;9.30;99.90
5924;DHT22;2987;50.884;14.818;2022-11-15T09:49:04;9.40;99.90
5924;DHT22;2987;50.884;14.818;2022-11-15T09:51:41;9.40;99.90
5924;DHT22;2987;50.884;14.818;2022-11-15T09:54:26;9.50;99.90
5924;DHT22;2987;50.884;14.818;2022-11-15T09:56:56;9.60;99.90
5924;DHT22;2987;50.884;14.818;2022-11-15T10:04:54;9.80;99.90
5924;DHT22;2987;50.884;14.818;2022-11-15T10:07:32;9.90;99.90
5924;DHT22;2987;50.884;14.818;2022-11-15T10:10:25;10.30;99.90
5924;DHT22;2987;50.884;14.818;2022-11-15T10:12:55;10.90;99.90
5924;DHT22;2987;50.884;14.818;2022-11-15T10:15:21;11.70;99.90
5924;DHT22;2987;50.884;14.818;2022-11-15T10:18:14;11.80;99.90
5924;DHT22;2987;50.884;14.818;2022-11-15T10:20:50;12.20;99.90
5924;DHT22;2987;50.884;14.818;2022-11-15T10:23:21;12.40;99.90
5924;DHT22;2987;50.884;14.818;2022-11-15T10:25:52;12.60;99.90
5924;DHT22;2987;50.884;14.818;2022-11-15T10:28:29;12.70;99.90
5924;DHT22;2987;50.884;14.818;2022-11-15T10:30:57;12.60;99.90
5924;DHT22;2987;50.884;14.818;2022-11-15T10:33:37;12.60;99.90
5924;DHT22;2987;50.884;14.818;2022-11-15T10:36:19;12.60;99.90
5924;DHT22;2987;50.884;14.818;2022-11-15T10:38:54;12.60;99.90
5924;DHT22;2987;50.884;14.818;2022-11-15T10:41:29;12.50;99.90
5924;DHT22;2987;50.884;14.818;2022-11-15T10:44:25;12.50;99.90
5924;DHT22;2987;50.884;14.818;2022-11-15T10:47:20;12.40;99.90
5924;DHT22;2987;50.884;14.818;2022-11-15T10:50:11;12.30;99.90
5924;DHT22;2987;50.884;14.818;2022-11-15T10:52:51;12.20;99.90
5924;DHT22;2987;50.884;14.818;2022-11-15T10:55:23;12.00;99.90
5924;DHT22;2987;50.884;14.818;2022-11-15T10:57:56;11.90;99.90
5924;DHT22;2987;50.884;14.818;2022-11-15T11:00:30;11.90;99.90
5924;DHT22;2987;50.884;14.818;2022-11-15T11:03:02;12.20;99.90
5924;DHT22;2987;50.884;14.818;2022-11-15T11:05:33;11.80;99.90
5924;DHT22;2987;50.884;14.818;2022-11-15T11:08:09;12.00;99.90
5924;DHT22;2987;50.884;14.818;2022-11-15T11:10:55;12.00;99.90
5924;DHT22;2987;50.884;14.818;2022-11-15T11:13:24;11.80;99.90
5924;DHT22;2987;50.884;14.818;2022-11-15T11:16:01;11.70;99.90
5924;DHT22;2987;50.884;14.818;2022-11-15T11:18:45;11.50;99.90
5924;DHT22;2987;50.884;14.818;2022-11-15T11:21:19;11.50;99.90
5924;DHT22;2987;50.884;14.818;2022-11-15T11:24:03;11.60;99.90
5924;DHT22;2987;50.884;14.818;2022-11-15T11:26:40;11.30;99.90
5924;DHT22;2987;50.884;14.818;2022-11-15T11:29:26;11.20;99.90
5924;DHT22;2987;50.884;14.818;2022-11-15T11:32:15;11.10;99.90
5924;DHT22;2987;50.884;14.818;2022-11-15T11:40:44;10.60;99.90
5924;DHT22;2987;50.884;14.818;2022-11-15T11:43:37;10.30;99.90
5924;DHT22;2987;50.884;14.818;2022-11-15T11:48:40;10.20;99.90
5924;DHT22;2987;50.884;14.818;2022-11-15T11:54:05;9.60;99.90
5924;DHT22;2987;50.884;14.818;2022-11-15T11:56:39;9.50;99.90
5924;DHT22;2987;50.884;14.818;2022-11-15T12:01:57;9.30;99.90
5924;DHT22;2987;50.884;14.818;2022-11-15T12:04:36;9.30;99.90
5924;DHT22;2987;50.884;14.818;2022-11-15T12:09:36;9.30;99.90
5924;DHT22;2987;50.884;14.818;2022-11-15T12:12:33;8.90;99.90
5924;DHT22;2987;50.884;14.818;2022-11-15T12:15:04;8.80;99.90
5924;DHT22;2987;50.884;14.818;2022-11-15T12:17:38;8.70;99.90
5924;DHT22;2987;50.884;14.818;2022-11-15T12:20:16;8.90;99.90
5924;DHT22;2987;50.884;14.818;2022-11-15T12:22:57;8.50;99.90
5924;DHT22;2987;50.884;14.818;2022-11-15T12:25:31;8.70;99.90
5924;DHT22;2987;50.884;14.818;2022-11-15T12:28:06;8.50;99.90
5924;DHT22;2987;50.884;14.818;2022-11-15T12:39:08;8.50;99.90
5924;DHT22;2987;50.884;14.818;2022-11-15T12:41:38;8.40;99.90
5924;DHT22;2987;50.884;14.818;2022-11-15T12:44:10;8.60;99.90
5924;DHT22;2987;50.884;14.818;2022-11-15T12:47:00;8.50;99.90
5924;DHT22;2987;50.884;14.818;2022-11-15T12:49:43;8.60;99.90
5924;DHT22;2987;50.884;14.818;2022-11-15T12:52:10;8.40;99.90
5924;DHT22;2987;50.884;14.818;2022-11-15T12:54:52;8.50;99.90
5924;DHT22;2987;50.884;14.818;2022-11-15T12:57:30;8.60;99.90
5924;DHT22;2987;50.884;14.818;2022-11-15T13:00:02;8.40;99.90
5924;DHT22;2987;50.884;14.818;2022-11-15T13:02:34;8.60;99.90
5924;DHT22;2987;50.884;14.818;2022-11-15T13:05:50;8.60;99.90
5924;DHT22;2987;50.884;14.818;2022-11-15T13:08:07;8.30;99.90
5924;DHT22;2987;50.884;14.818;2022-11-15T13:10:33;8.00;99.90
5924;DHT22;2987;50.884;14.818;2022-11-15T13:13:02;8.20;99.90
5924;DHT22;2987;50.884;14.818;2022-11-15T13:15:40;8.30;99.90
5924;DHT22;2987;50.884;14.818;2022-11-15T13:18:33;8.20;99.90
5924;DHT22;2987;50.884;14.818;2022-11-15T13:23:26;8.30;99.90
5924;DHT22;2987;50.884;14.818;2022-11-15T13:28:48;8.30;99.90
5924;DHT22;2987;50.884;14.818;2022-11-15T13:31:37;8.00;99.90
5924;DHT22;2987;50.884;14.818;2022-11-15T13:34:31;8.10;99.90
5924;DHT22;2987;50.884;14.818;2022-11-15T13:36:59;7.90;99.90
5924;DHT22;2987;50.884;14.818;2022-11-15T13:41:56;7.90;99.90
5924;DHT22;2987;50.884;14.818;2022-11-15T13:44:24;7.90;99.90
5924;DHT22;2987;50.884;14.818;2022-11-15T13:47:14;7.90;99.90
5924;DHT22;2987;50.884;14.818;2022-11-15T13:52:09;7.90;99.90
5924;DHT22;2987;50.884;14.818;2022-11-15T13:54:43;7.70;99.90
5924;DHT22;2987;50.884;14.818;2022-11-15T13:57:24;7.60;99.90
5924;DHT22;2987;50.884;14.818;2022-11-15T13:59:57;7.80;99.90
5924;DHT22;2987;50.884;14.818;2022-11-15T14:02:34;7.60;99.90
5924;DHT22;2987;50.884;14.818;2022-11-15T14:05:16;7.80;99.90
5924;DHT22;2987;50.884;14.818;2022-11-15T14:08:03;7.90;99.90
5924;DHT22;2987;50.884;14.818;2022-11-15T14:10:38;7.60;99.90
5924;DHT22;2987;50.884;14.818;2022-11-15T14:13:28;7.60;99.90
5924;DHT22;2987;50.884;14.818;2022-11-15T14:16:13;7.50;99.90
5924;DHT22;2987;50.884;14.818;2022-11-15T14:18:57;7.50;99.90
5924;DHT22;2987;50.884;14.818;2022-11-15T14:21:23;7.80;99.90
5924;DHT22;2987;50.884;14.818;2022-11-15T14:23:49;7.60;99.90
5924;DHT22;2987;50.884;14.818;2022-11-15T14:26:33;7.30;99.90
5924;DHT22;2987;50.884;14.818;2022-11-15T14:29:25;7.50;99.90
5924;DHT22;2987;50.884;14.818;2022-11-15T14:31:52;7.40;99.90
5924;DHT22;2987;50.884;14.818;2022-11-15T14:34:19;7.30;99.90
5924;DHT22;2987;50.884;14.818;2022-11-15T14:36:47;7.30;99.90
5924;DHT22;2987;50.884;14.818;2022-11-15T14:39:14;7.30;99.90
5924;DHT22;2987;50.884;14.818;2022-11-15T14:41:40;7.30;99.90
5924;DHT22;2987;50.884;14.818;2022-11-15T14:44:09;7.30;99.90
5924;DHT22;2987;50.884;14.818;2022-11-15T14:46:36;7.30;99.90
5924;DHT22;2987;50.884;14.818;2022-11-15T14:49:02;7.40;99.90
5924;DHT22;2987;50.884;14.818;2022-11-15T14:51:28;7.30;99.90
5924;DHT22;2987;50.884;14.818;2022-11-15T14:53:55;7.30;99.90
5924;DHT22;2987;50.884;14.818;2022-11-15T14:56:21;7.20;99.90
5924;DHT22;2987;50.884;14.818;2022-11-15T14:58:47;7.10;99.90
5924;DHT22;2987;50.884;14.818;2022-11-15T15:01:18;7.00;99.90
5924;DHT22;2987;50.884;14.818;2022-11-15T15:03:45;7.10;99.90
5924;DHT22;2987;50.884;14.818;2022-11-15T15:06:12;7.00;99.90
5924;DHT22;2987;50.884;14.818;2022-11-15T15:08:40;7.00;99.90
5924;DHT22;2987;50.884;14.818;2022-11-15T15:11:13;7.00;99.90
5924;DHT22;2987;50.884;14.818;2022-11-15T15:13:40;7.10;99.90
5924;DHT22;2987;50.884;14.818;2022-11-15T15:16:06;7.00;99.90
5924;DHT22;2987;50.884;14.818;2022-11-15T15:18:33;7.20;99.90
5924;DHT22;2987;50.884;14.818;2022-11-15T15:20:59;7.10;99.90
5924;DHT22;2987;50.884;14.818;2022-11-15T15:23:29;6.90;99.90
5924;DHT22;2987;50.884;14.818;2022-11-15T15:25:57;7.00;99.90
5924;DHT22;2987;50.884;14.818;2022-11-15T15:28:23;7.10;99.90
5924;DHT22;2987;50.884;14.818;2022-11-15T15:30:49;7.00;99.90
5924;DHT22;2987;50.884;14.818;2022-11-15T15:33:16;6.90;99.90
5924;DHT22;2987;50.884;14.818;2022-11-15T15:35:42;6.70;99.90
5924;DHT22;2987;50.884;14.818;2022-11-15T15:38:12;6.80;99.90
5924;DHT22;2987;50.884;14.818;2022-11-15T15:40:38;6.60;99.90
5924;DHT22;2987;50.884;14.818;2022-11-15T15:43:04;6.90;99.90
5924;DHT22;2987;50.884;14.818;2022-11-15T15:45:37;6.70;99.90
5924;DHT22;2987;50.884;14.818;2022-11-15T15:48:03;6.70;99.90
5924;DHT22;2987;50.884;14.818;2022-11-15T15:50:33;6.70;99.90
5924;DHT22;2987;50.884;14.818;2022-11-15T15:53:02;6.70;99.90
5924;DHT22;2987;50.884;14.818;2022-11-15T15:55:29;6.80;99.90
5924;DHT22;2987;50.884;14.818;2022-11-15T15:57:55;6.60;99.90
5924;DHT22;2987;50.884;14.818;2022-11-15T16:00:23;6.60;99.90
5924;DHT22;2987;50.884;14.818;2022-11-15T16:02:51;6.60;99.90
5924;DHT22;2987;50.884;14.818;2022-11-15T16:05:18;6.70;99.90
5924;DHT22;2987;50.884;14.818;2022-11-15T16:07:44;6.70;99.90
5924;DHT22;2987;50.884;14.818;2022-11-15T16:10:24;6.70;99.90
5924;DHT22;2987;50.884;14.818;2022-11-15T16:12:52;6.50;99.90
5924;DHT22;2987;50.884;14.818;2022-11-15T16:15:19;6.40;99.90
5924;DHT22;2987;50.884;14.818;2022-11-15T16:17:50;6.50;99.90
5924;DHT22;2987;50.884;14.818;2022-11-15T16:20:38;6.50;99.90
5924;DHT22;2987;50.884;14.818;2022-11-15T16:23:07;6.40;99.90
5924;DHT22;2987;50.884;14.818;2022-11-15T16:27:59;6.30;99.90
5924;DHT22;2987;50.884;14.818;2022-11-15T16:30:25;6.50;99.90
5924;DHT22;2987;50.884;14.818;2022-11-15T16:32:52;6.40;99.90
5924;DHT22;2987;50.884;14.818;2022-11-15T16:35:19;6.50;99.90
5924;DHT22;2987;50.884;14.818;2022-11-15T16:37:45;6.30;99.90
5924;DHT22;2987;50.884;14.818;2022-11-15T16:40:32;6.40;99.90
5924;DHT22;2987;50.884;14.818;2022-11-15T16:43:01;6.50;99.90
5924;DHT22;2987;50.884;14.818;2022-11-15T16:45:29;6.40;99.90
5924;DHT22;2987;50.884;14.818;2022-11-15T16:50:23;6.40;99.90
5924;DHT22;2987;50.884;14.818;2022-11-15T16:52:52;6.40;99.90
5924;DHT22;2987;50.884;14.818;2022-11-15T16:55:19;6.40;99.90
5924;DHT22;2987;50.884;14.818;2022-11-15T16:57:45;6.40;99.90
5924;DHT22;2987;50.884;14.818;2022-11-15T17:00:12;6.40;99.90
5924;DHT22;2987;50.884;14.818;2022-11-15T17:02:44;6.50;99.90
5924;DHT22;2987;50.884;14.818;2022-11-15T17:05:11;6.40;99.90
5924;DHT22;2987;50.884;14.818;2022-11-15T17:07:38;6.30;99.90
5924;DHT22;2987;50.884;14.818;2022-11-15T17:10:06;6.40;99.90
5924;DHT22;2987;50.884;14.818;2022-11-15T17:12:34;6.40;99.90
5924;DHT22;2987;50.884;14.818;2022-11-15T17:15:00;6.40;99.90
5924;DHT22;2987;50.884;14.818;2022-11-15T17:17:27;6.40;99.90
5924;DHT22;2987;50.884;14.818;2022-11-15T17:19:53;6.50;99.90
5924;DHT22;2987;50.884;14.818;2022-11-15T17:22:20;6.30;99.90
5924;DHT22;2987;50.884;14.818;2022-11-15T17:24:46;6.50;99.90
5924;DHT22;2987;50.884;14.818;2022-11-15T17:27:12;6.50;99.90
5924;DHT22;2987;50.884;14.818;2022-11-15T17:29:38;6.30;99.90
5924;DHT22;2987;50.884;14.818;2022-11-15T17:32:07;6.50;99.90
5924;DHT22;2987;50.884;14.818;2022-11-15T17:34:33;6.40;99.90
5924;DHT22;2987;50.884;14.818;2022-11-15T17:36:59;6.80;99.90
5924;DHT22;2987;50.884;14.818;2022-11-15T17:39:25;6.60;99.90
5924;DHT22;2987;50.884;14.818;2022-11-15T17:41:51;6.60;99.90
5924;DHT22;2987;50.884;14.818;2022-11-15T17:44:17;6.70;99.90
5924;DHT22;2987;50.884;14.818;2022-11-15T17:46:43;6.70;99.90
5924;DHT22;2987;50.884;14.818;2022-11-15T17:49:10;6.80;99.90
5924;DHT22;2987;50.884;14.818;2022-11-15T17:51:36;6.80;99.90
5924;DHT22;2987;50.884;14.818;2022-11-15T17:54:02;6.60;99.90
5924;DHT22;2987;50.884;14.818;2022-11-15T17:56:28;6.90;99.90
5924;DHT22;2987;50.884;14.818;2022-11-15T17:58:57;6.80;99.90
5924;DHT22;2987;50.884;14.818;2022-11-15T18:01:28;6.80;99.90
5924;DHT22;2987;50.884;14.818;2022-11-15T18:03:57;6.70;99.90
5924;DHT22;2987;50.884;14.818;2022-11-15T18:06:27;6.70;99.90
5924;DHT22;2987;50.884;14.818;2022-11-15T18:08:55;6.70;99.90
5924;DHT22;2987;50.884;14.818;2022-11-15T18:11:26;6.80;99.90
5924;DHT22;2987;50.884;14.818;2022-11-15T18:13:55;6.80;99.90
5924;DHT22;2987;50.884;14.818;2022-11-15T18:16:23;6.70;99.90
5924;DHT22;2987;50.884;14.818;2022-11-15T18:18:52;6.80;99.90
5924;DHT22;2987;50.884;14.818;2022-11-15T18:21:21;6.90;99.90
5924;DHT22;2987;50.884;14.818;2022-11-15T18:23:51;6.70;99.90
5924;DHT22;2987;50.884;14.818;2022-11-15T18:26:18;6.80;99.90
5924;DHT22;2987;50.884;14.818;2022-11-15T18:28:47;7.00;99.90
5924;DHT22;2987;50.884;14.818;2022-11-15T18:31:17;6.80;99.90
5924;DHT22;2987;50.884;14.818;2022-11-15T18:33:44;6.80;99.90
5924;DHT22;2987;50.884;14.818;2022-11-15T18:36:12;7.00;99.90
5924;DHT22;2987;50.884;14.818;2022-11-15T18:38:39;7.10;99.90
5924;DHT22;2987;50.884;14.818;2022-11-15T18:41:10;6.90;99.90
5924;DHT22;2987;50.884;14.818;2022-11-15T18:43:37;7.00;99.90
5924;DHT22;2987;50.884;14.818;2022-11-15T18:46:08;6.90;99.90
5924;DHT22;2987;50.884;14.818;2022-11-15T18:48:37;6.70;99.90